Terminal Aerodrome Forecast
Issued by NWS

Home | Current Version | Previous Version | Text Only | Print | Product List | Glossary On
Versions: 1 2 3 4 5 6 7 8 9 10 11 12 13 14 15 16 17 18 19 20 21 22 23 24 25 26 27 28 29 30 31 32
000
FTAK31 PANC 010543
TAFACD
TAF
PACD 010543Z 0106/0206 VRB06KT P6SM FEW080
     FM010900 13012KT P6SM VCSH BKN040 OVC080
     FM011600 13016G25KT P6SM -RA BKN020 OVC040
     FM012300 14020G32KT 3SM RA BR SCT006 OVC012=

USA.gov is the U.S. government's official web portal to all federal, state and local government web resources and services.